Time;durP1;ratioP1;P1;durP2;ratioP2;P2;SDS_P1;SDS_P2;PMS_P1;PMS_P2;Temp;Humidity;BMP_temperature;BMP_pressure;BME280_temperature;BME280_humidity;BME280_pressure;Samples;Min_cycle;Max_cycle;Signal;HPM_P1;HPM_P2
2022/04/03 00:01:50;;;;;;;5.53;1.00;;;;;;;;;;5301565;28;20059;-68
2022/04/03 00:04:23;;;;;;;3.27;0.80;;;;;;;;;;5301600;28;20504;-69
2022/04/03 00:06:54;;;;;;;4.83;1.10;;;;;;;;;;5301728;28;20382;-70
2022/04/03 00:09:25;;;;;;;3.87;1.30;;;;;;;;;;5301994;28;20027;-68
2022/04/03 00:11:56;;;;;;;6.57;1.70;;;;;;;;;;5300824;28;20023;-69
2022/04/03 00:14:28;;;;;;;4.90;1.10;;;;;;;;;;5302218;28;20035;-69
2022/04/03 00:16:59;;;;;;;5.43;1.23;;;;;;;;;;5301337;28;20071;-67
2022/04/03 00:19:30;;;;;;;7.28;1.65;;;;;;;;;;5301030;28;20125;-69
2022/04/03 00:22:01;;;;;;;3.36;1.14;;;;;;;;;;5301670;28;20356;-69
2022/04/03 00:24:32;;;;;;;4.33;0.90;;;;;;;;;;5301046;28;20463;-70
2022/04/03 00:27:04;;;;;;;5.20;0.90;;;;;;;;;;5301653;28;20499;-69
2022/04/03 00:29:35;;;;;;;5.60;1.08;;;;;;;;;;5301716;28;20024;-68
2022/04/03 00:32:06;;;;;;;5.03;1.20;;;;;;;;;;5301063;28;20020;-68
2022/04/03 00:34:37;;;;;;;4.23;1.10;;;;;;;;;;5301463;28;20024;-69
2022/04/03 00:37:08;;;;;;;6.50;1.50;;;;;;;;;;5301552;28;20378;-70
2022/04/03 00:39:40;;;;;;;3.38;1.00;;;;;;;;;;5300993;28;20020;-68
2022/04/03 00:42:11;;;;;;;4.57;1.17;;;;;;;;;;5301630;28;20027;-69
2022/04/03 00:44:42;;;;;;;5.30;0.90;;;;;;;;;;5301485;28;20020;-70
2022/04/03 00:47:14;;;;;;;2.50;0.90;;;;;;;;;;5300807;28;20012;-70
2022/04/03 00:49:45;;;;;;;2.97;1.00;;;;;;;;;;5301253;28;20023;-70
2022/04/03 00:52:16;;;;;;;3.73;1.00;;;;;;;;;;5301699;28;20094;-69
2022/04/03 00:54:48;;;;;;;5.50;1.00;;;;;;;;;;5300467;28;20477;-69
2022/04/03 00:57:20;;;;;;;4.37;1.10;;;;;;;;;;5301707;28;20031;-70
2022/04/03 00:59:52;;;;;;;4.33;0.90;;;;;;;;;;5300165;28;20108;-70
2022/04/03 01:02:23;;;;;;;2.20;0.80;;;;;;;;;;5301911;28;20092;-69
2022/04/03 01:04:54;;;;;;;2.57;0.83;;;;;;;;;;5300950;28;20073;-69
2022/04/03 01:07:25;;;;;;;4.17;0.97;;;;;;;;;;5301111;28;20103;-69
2022/04/03 01:09:58;;;;;;;5.53;1.10;;;;;;;;;;5300941;28;20016;-69
2022/04/03 01:12:29;;;;;;;5.43;0.90;;;;;;;;;;5301367;28;20028;-70
2022/04/03 01:15:00;;;;;;;7.10;1.00;;;;;;;;;;5300589;28;20012;-69
2022/04/03 01:17:31;;;;;;;3.92;1.08;;;;;;;;;;5300850;28;20058;-69
2022/04/03 01:20:02;;;;;;;3.00;0.90;;;;;;;;;;5302419;28;20052;-70
2022/04/03 01:22:34;;;;;;;3.93;0.97;;;;;;;;;;5304567;28;20020;-69
2022/04/03 01:25:05;;;;;;;6.03;0.90;;;;;;;;;;5304972;28;20016;-70
2022/04/03 01:27:37;;;;;;;3.37;0.90;;;;;;;;;;5304855;28;20024;-69
2022/04/03 01:30:10;;;;;;;2.70;1.00;;;;;;;;;;5304051;28;20065;-69
2022/04/03 01:32:42;;;;;;;2.93;1.00;;;;;;;;;;5304895;28;20036;-70
2022/04/03 01:35:13;;;;;;;4.30;1.10;;;;;;;;;;5303889;28;20081;-69
2022/04/03 01:37:44;;;;;;;3.63;1.47;;;;;;;;;;5304486;28;20020;-70
2022/04/03 01:40:16;;;;;;;3.30;1.00;;;;;;;;;;5304893;28;20013;-69
2022/04/03 01:42:47;;;;;;;3.87;1.03;;;;;;;;;;5303661;28;20031;-70
2022/04/03 01:45:19;;;;;;;2.47;0.90;;;;;;;;;;5304703;28;20022;-69
2022/04/03 01:47:51;;;;;;;3.67;1.33;;;;;;;;;;5304058;28;20024;-69
2022/04/03 01:50:22;;;;;;;2.60;1.10;;;;;;;;;;5304200;28;20008;-69
2022/04/03 01:52:53;;;;;;;3.70;1.58;;;;;;;;;;5304292;28;20024;-69
2022/04/03 01:55:25;;;;;;;5.63;1.50;;;;;;;;;;5304707;28;20056;-69
2022/04/03 01:57:57;;;;;;;3.63;1.93;;;;;;;;;;5303210;28;20473;-69
2022/04/03 02:00:28;;;;;;;3.87;0.90;;;;;;;;;;5304560;28;20101;-69
2022/04/03 02:02:59;;;;;;;4.10;1.30;;;;;;;;;;5303948;28;20024;-69
2022/04/03 02:05:30;;;;;;;2.47;1.07;;;;;;;;;;5304015;28;20027;-69
2022/04/03 02:08:01;;;;;;;3.55;1.20;;;;;;;;;;5304145;28;20098;-69
2022/04/03 02:10:32;;;;;;;4.60;1.20;;;;;;;;;;5303192;28;20024;-69
2022/04/03 02:13:04;;;;;;;3.63;1.10;;;;;;;;;;5304062;28;21058;-69
2022/04/03 02:15:35;;;;;;;2.10;1.03;;;;;;;;;;5303741;28;20055;-68
2022/04/03 02:18:08;;;;;;;3.97;1.30;;;;;;;;;;5303245;28;20517;-68
2022/04/03 02:20:39;;;;;;;4.57;1.30;;;;;;;;;;5303865;28;20374;-69
2022/04/03 02:23:11;;;;;;;3.67;1.53;;;;;;;;;;5303755;28;20020;-70
2022/04/03 02:25:42;;;;;;;5.67;1.27;;;;;;;;;;5303205;28;20038;-70
2022/04/03 02:28:13;;;;;;;2.87;1.30;;;;;;;;;;5303880;28;20084;-67
2022/04/03 02:30:44;;;;;;;3.90;1.27;;;;;;;;;;5302986;28;20050;-67
2022/04/03 02:33:15;;;;;;;5.20;1.37;;;;;;;;;;5302419;28;20098;-67
2022/04/03 02:35:46;;;;;;;4.23;1.40;;;;;;;;;;5303241;28;20041;-70
2022/04/03 02:38:18;;;;;;;4.38;1.10;;;;;;;;;;5303315;28;20024;-69
2022/04/03 02:40:49;;;;;;;6.27;1.60;;;;;;;;;;5303452;28;20020;-69
2022/04/03 02:43:21;;;;;;;5.30;1.40;;;;;;;;;;5303877;28;20017;-69
2022/04/03 02:45:52;;;;;;;4.10;1.63;;;;;;;;;;5302192;28;20016;-69
2022/04/03 02:48:23;;;;;;;6.80;1.50;;;;;;;;;;5303737;28;20016;-68
2022/04/03 02:50:54;;;;;;;5.63;1.40;;;;;;;;;;5302996;28;20020;-69
2022/04/03 02:53:25;;;;;;;6.68;1.38;;;;;;;;;;5302843;28;20042;-69
2022/04/03 02:55:57;;;;;;;9.73;1.53;;;;;;;;;;5302943;28;20024;-68
2022/04/03 02:58:28;;;;;;;5.30;1.60;;;;;;;;;;5303421;28;20020;-68
2022/04/03 03:00:59;;;;;;;4.55;1.58;;;;;;;;;;5301907;28;20027;-68
2022/04/03 03:03:30;;;;;;;5.07;1.20;;;;;;;;;;5302876;28;20461;-68
2022/04/03 03:06:02;;;;;;;4.03;1.20;;;;;;;;;;5303020;28;20375;-68
2022/04/03 03:08:33;;;;;;;4.83;1.60;;;;;;;;;;5302263;28;20046;-69
2022/04/03 03:11:04;;;;;;;3.60;1.25;;;;;;;;;;5302787;28;20119;-68
2022/04/03 03:13:36;;;;;;;7.27;1.30;;;;;;;;;;5301784;28;20027;-68
2022/04/03 03:16:07;;;;;;;4.67;1.60;;;;;;;;;;5302815;28;20443;-69
2022/04/03 03:18:39;;;;;;;2.53;1.30;;;;;;;;;;5302812;28;20027;-69
2022/04/03 03:21:10;;;;;;;4.75;1.70;;;;;;;;;;5301873;28;20114;-69
2022/04/03 03:23:41;;;;;;;4.70;1.37;;;;;;;;;;5302552;28;20036;-69
2022/04/03 03:26:13;;;;;;;6.40;1.90;;;;;;;;;;5302793;28;20099;-69
2022/04/03 03:28:44;;;;;;;5.10;1.85;;;;;;;;;;5301663;28;20020;-69
2022/04/03 03:31:15;;;;;;;4.27;1.43;;;;;;;;;;5303066;28;20065;-69
2022/04/03 03:33:46;;;;;;;4.80;1.60;;;;;;;;;;5302165;28;20020;-69
2022/04/03 03:36:17;;;;;;;2.90;1.50;;;;;;;;;;5301875;28;20016;-69
2022/04/03 03:38:49;;;;;;;4.03;1.30;;;;;;;;;;5302192;28;20047;-69
2022/04/03 03:41:20;;;;;;;5.50;1.33;;;;;;;;;;5302987;28;20012;-69
2022/04/03 03:43:51;;;;;;;4.80;1.90;;;;;;;;;;5300911;28;20016;-69
2022/04/03 03:46:23;;;;;;;4.43;2.00;;;;;;;;;;5302572;28;20024;-69
2022/04/03 03:48:54;;;;;;;3.37;1.37;;;;;;;;;;5300972;28;20116;-69
2022/04/03 03:51:25;;;;;;;5.53;1.63;;;;;;;;;;5302667;28;20065;-70
2022/04/03 03:53:56;;;;;;;3.85;1.45;;;;;;;;;;5301992;28;20378;-68
2022/04/03 03:56:27;;;;;;;5.00;2.00;;;;;;;;;;5301566;28;20016;-68
2022/04/03 03:58:59;;;;;;;5.38;1.48;;;;;;;;;;5301731;28;20016;-69
2022/04/03 04:01:30;;;;;;;3.87;1.50;;;;;;;;;;5301972;28;20016;-70
2022/04/03 04:04:02;;;;;;;4.23;1.70;;;;;;;;;;5301313;28;20020;-68
2022/04/03 04:06:33;;;;;;;4.23;1.60;;;;;;;;;;5301953;28;20032;-70
2022/04/03 04:09:04;;;;;;;5.50;1.53;;;;;;;;;;5302040;28;20023;-70
2022/04/03 04:11:35;;;;;;;3.80;1.43;;;;;;;;;;5300875;28;20095;-70
2022/04/03 04:14:07;;;;;;;6.43;2.03;;;;;;;;;;5301811;28;20016;-69
2022/04/03 04:16:38;;;;;;;3.37;1.37;;;;;;;;;;5301155;28;20530;-70
2022/04/03 04:19:09;;;;;;;4.47;1.83;;;;;;;;;;5301665;28;20035;-69
2022/04/03 04:21:41;;;;;;;4.13;1.80;;;;;;;;;;5301831;28;20016;-69
2022/04/03 04:24:12;;;;;;;4.03;1.83;;;;;;;;;;5301067;28;20051;-70
2022/04/03 04:26:43;;;;;;;4.43;1.93;;;;;;;;;;5301881;28;20062;-69
2022/04/03 04:29:15;;;;;;;8.30;2.58;;;;;;;;;;5301932;28;20020;-69
2022/04/03 04:31:46;;;;;;;5.47;1.67;;;;;;;;;;5300738;28;20012;-69
2022/04/03 04:34:18;;;;;;;5.47;1.80;;;;;;;;;;5302038;28;20028;-69
2022/04/03 04:36:49;;;;;;;8.87;3.63;;;;;;;;;;5301173;28;20081;-69
2022/04/03 04:39:21;;;;;;;4.10;1.87;;;;;;;;;;5301503;28;20458;-69
2022/04/03 04:41:52;;;;;;;5.03;2.07;;;;;;;;;;5301459;28;20020;-70
2022/04/03 04:44:23;;;;;;;4.78;2.08;;;;;;;;;;5301976;28;20016;-69
2022/04/03 04:46:54;;;;;;;4.57;1.80;;;;;;;;;;5300471;28;20024;-69
2022/04/03 04:49:26;;;;;;;8.77;2.30;;;;;;;;;;5301961;28;20016;-68
2022/04/03 04:51:57;;;;;;;7.40;2.17;;;;;;;;;;5300517;28;20378;-68
2022/04/03 04:54:29;;;;;;;4.23;2.03;;;;;;;;;;5302172;28;20044;-69
2022/04/03 04:57:01;;;;;;;4.17;1.60;;;;;;;;;;5305424;28;20020;-69
2022/04/03 04:59:32;;;;;;;5.80;2.07;;;;;;;;;;5304508;28;20368;-69
2022/04/03 05:02:05;;;;;;;5.40;2.10;;;;;;;;;;5305564;28;20016;-69
2022/04/03 05:04:36;;;;;;;7.33;2.10;;;;;;;;;;5305086;28;20012;-69
2022/04/03 05:07:08;;;;;;;5.90;1.97;;;;;;;;;;5304908;28;20419;-69
2022/04/03 05:09:40;;;;;;;6.87;2.40;;;;;;;;;;5305122;28;20358;-70
2022/04/03 05:12:13;;;;;;;7.40;2.17;;;;;;;;;;5305109;28;20328;-69
2022/04/03 05:14:44;;;;;;;5.27;2.13;;;;;;;;;;5304172;28;20098;-70
2022/04/03 05:17:15;;;;;;;6.67;2.37;;;;;;;;;;5305104;28;20155;-69
2022/04/03 05:19:47;;;;;;;7.72;2.80;;;;;;;;;;5304798;28;20020;-70
2022/04/03 05:22:20;;;;;;;6.50;2.10;;;;;;;;;;5304466;28;20019;-68
2022/04/03 05:24:54;;;;;;;6.17;2.47;;;;;;;;;;5304391;28;20027;-68
2022/04/03 05:27:25;;;;;;;5.00;1.90;;;;;;;;;;5304502;28;20368;-69
2022/04/03 05:29:57;;;;;;;9.07;2.10;;;;;;;;;;5304662;28;20031;-69
2022/04/03 05:32:29;;;;;;;7.50;2.13;;;;;;;;;;5305131;28;20020;-68
2022/04/03 05:35:00;;;;;;;5.70;1.87;;;;;;;;;;5303956;28;20385;-68
2022/04/03 05:37:32;;;;;;;8.00;2.57;;;;;;;;;;5304436;28;20058;-68
2022/04/03 05:40:04;;;;;;;5.00;1.63;;;;;;;;;;5304714;28;20501;-68
2022/04/03 05:42:36;;;;;;;4.83;1.90;;;;;;;;;;5303893;28;20016;-69
2022/04/03 05:45:08;;;;;;;4.90;2.10;;;;;;;;;;5304549;28;20039;-70
2022/04/03 05:47:39;;;;;;;5.03;2.30;;;;;;;;;;5304356;28;20497;-69
2022/04/03 05:50:10;;;;;;;9.73;2.50;;;;;;;;;;5303868;28;20120;-69
2022/04/03 05:52:43;;;;;;;3.50;1.83;;;;;;;;;;5304379;28;20021;-69
2022/04/03 05:55:16;;;;;;;6.80;2.43;;;;;;;;;;5303509;28;20047;-69
2022/04/03 05:57:48;;;;;;;5.27;2.43;;;;;;;;;;5303922;28;20478;-69
2022/04/03 06:00:20;;;;;;;5.03;2.27;;;;;;;;;;5304364;28;20035;-69
2022/04/03 06:02:56;;;;;;;8.03;2.40;;;;;;;;;;5303189;28;20031;-69
2022/04/03 06:05:31;;;;;;;5.90;2.33;;;;;;;;;;5304122;28;20016;-69
2022/04/03 06:08:02;;;;;;;9.07;2.20;;;;;;;;;;5304028;28;20024;-69
2022/04/03 06:10:34;;;;;;;4.77;2.07;;;;;;;;;;5303119;28;20031;-69
2022/04/03 06:13:06;;;;;;;9.80;2.40;;;;;;;;;;5304050;28;20069;-69
2022/04/03 06:15:39;;;;;;;6.00;2.00;;;;;;;;;;5303822;28;20111;-70
2022/04/03 06:18:14;;;;;;;5.70;1.80;;;;;;;;;;5302874;28;20032;-69
2022/04/03 06:20:45;;;;;;;4.57;2.00;;;;;;;;;;5303451;28;20048;-70
2022/04/03 06:23:18;;;;;;;5.80;1.97;;;;;;;;;;5303326;28;20117;-69
2022/04/03 06:25:52;;;;;;;3.60;1.60;;;;;;;;;;5303633;28;20485;-69
2022/04/03 06:28:25;;;;;;;10.40;2.03;;;;;;;;;;5304283;28;20077;-69
2022/04/03 06:30:56;;;;;;;4.97;1.90;;;;;;;;;;5302644;28;20008;-68
2022/04/03 06:33:27;;;;;;;6.53;2.73;;;;;;;;;;5303628;28;20108;-68
2022/04/03 06:36:00;;;;;;;13.53;2.37;;;;;;;;;;5303068;28;20096;-69
2022/04/03 06:38:32;;;;;;;6.70;1.90;;;;;;;;;;5302656;28;20028;-69
2022/04/03 06:41:03;;;;;;;5.60;1.90;;;;;;;;;;5303580;28;20598;-69
2022/04/03 06:43:34;;;;;;;7.50;2.10;;;;;;;;;;5303179;28;20108;-68
2022/04/03 06:46:06;;;;;;;5.27;1.87;;;;;;;;;;5302641;28;20423;-70
2022/04/03 06:48:37;;;;;;;5.80;2.13;;;;;;;;;;5303338;28;20074;-70
2022/04/03 06:51:08;;;;;;;4.10;1.73;;;;;;;;;;5303356;28;20012;-70
2022/04/03 06:53:39;;;;;;;6.62;2.02;;;;;;;;;;5302327;28;20024;-70
2022/04/03 06:56:10;;;;;;;4.30;1.73;;;;;;;;;;5303158;28;20588;-68
2022/04/03 06:58:42;;;;;;;3.28;1.63;;;;;;;;;;5302428;28;20136;-69
2022/04/03 07:01:13;;;;;;;5.22;1.90;;;;;;;;;;5303150;28;20402;-69
2022/04/03 07:03:46;;;;;;;6.40;1.60;;;;;;;;;;5302763;28;20039;-70
2022/04/03 07:06:17;;;;;;;6.00;1.80;;;;;;;;;;5302388;28;20114;-69
2022/04/03 07:08:48;;;;;;;6.22;1.34;;;;;;;;;;5302564;28;20100;-69
2022/04/03 07:11:20;;;;;;;3.60;1.42;;;;;;;;;;5303193;28;20020;-69
2022/04/03 07:13:51;;;;;;;4.13;1.60;;;;;;;;;;5301863;28;20028;-69
2022/04/03 07:16:22;;;;;;;4.80;1.67;;;;;;;;;;5302908;28;20339;-70
2022/04/03 07:18:53;;;;;;;5.10;1.50;;;;;;;;;;5301653;28;20055;-69
2022/04/03 07:21:24;;;;;;;5.47;1.65;;;;;;;;;;5301954;28;20857;-70
2022/04/03 07:23:56;;;;;;;6.07;2.40;;;;;;;;;;5302479;28;20450;-71
2022/04/03 07:26:27;;;;;;;7.30;2.20;;;;;;;;;;5302875;28;20104;-68
2022/04/03 07:28:58;;;;;;;4.70;1.85;;;;;;;;;;5301496;28;20036;-69
2022/04/03 07:31:29;;;;;;;6.25;2.03;;;;;;;;;;5302337;28;20265;-69
2022/04/03 07:34:01;;;;;;;7.32;2.22;;;;;;;;;;5301716;28;20020;-69
2022/04/03 07:36:32;;;;;;;3.25;1.83;;;;;;;;;;5302458;28;20089;-70
2022/04/03 07:39:03;;;;;;;4.68;1.75;;;;;;;;;;5302285;28;20095;-69
2022/04/03 07:41:34;;;;;;;3.70;2.00;;;;;;;;;;5301674;28;20463;-70
2022/04/03 07:44:08;;;;;;;5.53;1.90;;;;;;;;;;5302295;28;20020;-69
2022/04/03 07:46:39;;;;;;;8.23;2.30;;;;;;;;;;5302431;28;20463;-69
2022/04/03 07:49:10;;;;;;;4.90;2.22;;;;;;;;;;5301501;28;20012;-69
2022/04/03 07:51:42;;;;;;;4.03;2.08;;;;;;;;;;5302241;28;20024;-69
2022/04/03 07:54:14;;;;;;;4.35;1.80;;;;;;;;;;5302147;28;20462;-69
2022/04/03 07:56:45;;;;;;;3.53;1.98;;;;;;;;;;5300777;28;20012;-69
2022/04/03 07:59:16;;;;;;;4.00;1.45;;;;;;;;;;5302461;28;20027;-69
2022/04/03 08:01:47;;;;;;;4.15;1.30;;;;;;;;;;5301067;28;20012;-69
2022/04/03 08:04:18;;;;;;;2.40;1.00;;;;;;;;;;5302290;28;20044;-69
2022/04/03 08:06:50;;;;;;;4.10;1.10;;;;;;;;;;5301583;28;20259;-69
2022/04/03 08:09:21;;;;;;;3.72;1.00;;;;;;;;;;5301358;28;20027;-69
2022/04/03 08:11:52;;;;;;;2.63;1.00;;;;;;;;;;5301865;28;20258;-69
2022/04/03 08:14:23;;;;;;;4.50;0.90;;;;;;;;;;5302315;28;20039;-69
2022/04/03 08:16:55;;;;;;;2.72;0.70;;;;;;;;;;5300604;28;20117;-69
2022/04/03 08:19:26;;;;;;;3.28;0.90;;;;;;;;;;5302073;28;20161;-69
2022/04/03 08:21:57;;;;;;;4.97;0.70;;;;;;;;;;5301817;28;20255;-70
2022/04/03 08:24:28;;;;;;;2.13;0.70;;;;;;;;;;5301431;28;20115;-69
2022/04/03 08:26:59;;;;;;;1.73;0.50;;;;;;;;;;5301637;28;20016;-69
2022/04/03 08:29:31;;;;;;;1.35;0.40;;;;;;;;;;5303970;28;20036;-70
2022/04/03 08:32:02;;;;;;;3.35;0.50;;;;;;;;;;5305165;28;20294;-69
2022/04/03 08:34:33;;;;;;;4.38;0.60;;;;;;;;;;5306109;28;20286;-69
2022/04/03 08:37:05;;;;;;;4.25;0.40;;;;;;;;;;5305173;28;20034;-70
2022/04/03 08:39:36;;;;;;;2.67;0.30;;;;;;;;;;5306014;28;20039;-69
2022/04/03 08:42:08;;;;;;;2.42;0.30;;;;;;;;;;5301873;28;20024;-69
2022/04/03 08:44:40;;;;;;;3.63;0.50;;;;;;;;;;5324492;28;20058;-70
2022/04/03 08:47:12;;;;;;;3.83;0.40;;;;;;;;;;5326752;28;20039;-69
2022/04/03 08:49:44;;;;;;;1.42;0.32;;;;;;;;;;5326760;28;20092;-70
2022/04/03 08:52:15;;;;;;;1.40;0.40;;;;;;;;;;5326463;28;20509;-69
2022/04/03 08:54:46;;;;;;;2.75;0.40;;;;;;;;;;5325928;28;20019;-70
2022/04/03 08:57:18;;;;;;;2.03;0.40;;;;;;;;;;5327330;28;20476;-69
2022/04/03 08:59:50;;;;;;;2.22;0.40;;;;;;;;;;5325394;28;20039;-69
2022/04/03 09:02:21;;;;;;;2.90;0.50;;;;;;;;;;5327111;28;20342;-69
2022/04/03 09:04:53;;;;;;;4.50;0.90;;;;;;;;;;5326315;28;20091;-69
2022/04/03 09:07:24;;;;;;;4.05;0.45;;;;;;;;;;5325885;28;20027;-69
2022/04/03 09:09:56;;;;;;;3.35;0.50;;;;;;;;;;5326362;28;20019;-69
2022/04/03 09:12:27;;;;;;;3.85;0.45;;;;;;;;;;5325972;28;20047;-69
2022/04/03 09:14:59;;;;;;;2.15;0.40;;;;;;;;;;5326039;28;20057;-69
2022/04/03 09:17:38;;;;;;;4.07;0.60;;;;;;;;;;5325047;28;20061;-69
2022/04/03 09:20:15;;;;;;;4.65;0.50;;;;;;;;;;5325482;28;20042;-69
2022/04/03 09:22:49;;;;;;;1.83;0.40;;;;;;;;;;5326033;28;20060;-69
2022/04/03 09:25:25;;;;;;;2.65;0.50;;;;;;;;;;5326382;28;20020;-69
2022/04/03 09:28:00;;;;;;;1.58;0.38;;;;;;;;;;5324909;28;20051;-69
2022/04/03 09:30:35;;;;;;;3.50;0.77;;;;;;;;;;5326170;28;20031;-70
2022/04/03 09:33:07;;;;;;;1.90;0.40;;;;;;;;;;5325194;28;20015;-69
2022/04/03 09:35:53;;;;;;;2.20;0.40;;;;;;;;;;5325851;28;20016;-69
2022/04/03 09:38:27;;;;;;;1.88;0.40;;;;;;;;;;5326325;28;20036;-69
2022/04/03 09:40:59;;;;;;;2.47;0.50;;;;;;;;;;5324025;28;20015;-70
2022/04/03 09:43:38;;;;;;;1.67;0.40;;;;;;;;;;5325760;28;20450;-69
2022/04/03 09:46:10;;;;;;;4.20;0.30;;;;;;;;;;5326016;28;20019;-70
2022/04/03 09:48:43;;;;;;;1.75;0.40;;;;;;;;;;5325012;28;20409;-69
2022/04/03 09:51:22;;;;;;;2.20;0.30;;;;;;;;;;5325582;28;20028;-69
2022/04/03 09:53:58;;;;;;;1.30;0.30;;;;;;;;;;5325311;28;20028;-69
2022/04/03 09:56:34;;;;;;;3.53;0.40;;;;;;;;;;5324904;28;20011;-69
2022/04/03 09:59:09;;;;;;;3.28;0.30;;;;;;;;;;5325555;28;20538;-69
2022/04/03 10:01:41;;;;;;;1.48;0.30;;;;;;;;;;5324719;28;20019;-69
2022/04/03 10:04:14;;;;;;;2.40;0.32;;;;;;;;;;5325874;28;20016;-70
2022/04/03 10:06:45;;;;;;;2.20;0.30;;;;;;;;;;5325037;28;20485;-70
2022/04/03 10:09:16;;;;;;;1.00;0.30;;;;;;;;;;5325000;28;20011;-69
2022/04/03 10:11:48;;;;;;;3.70;0.50;;;;;;;;;;5325093;28;20111;-69
2022/04/03 10:14:20;;;;;;;2.90;0.40;;;;;;;;;;5325613;28;20351;-69
2022/04/03 10:16:51;;;;;;;0.82;0.40;;;;;;;;;;5323991;28;20067;-69
2022/04/03 10:19:23;;;;;;;3.50;0.70;;;;;;;;;;5325824;28;20015;-70
2022/04/03 10:21:56;;;;;;;2.38;0.20;;;;;;;;;;5324750;28;20383;-69
2022/04/03 10:24:29;;;;;;;1.10;0.20;;;;;;;;;;5324261;28;20012;-70
2022/04/03 10:27:05;;;;;;;18.10;8.35;;;;;;;;;;5325460;28;20015;-69
2022/04/03 10:29:37;;;;;;;2.30;0.55;;;;;;;;;;5324450;28;20128;-69
2022/04/03 10:32:09;;;;;;;1.73;0.30;;;;;;;;;;5324820;28;20169;-69
2022/04/03 10:34:47;;;;;;;1.42;0.30;;;;;;;;;;5325183;28;20069;-68
2022/04/03 10:37:39;;;;;;;5.68;0.82;;;;;;;;;;5324284;28;20020;-68
2022/04/03 10:40:17;;;;;;;1.48;0.20;;;;;;;;;;5325369;28;20072;-68
2022/04/03 10:42:58;;;;;;;0.93;0.25;;;;;;;;;;5324727;28;20026;-69
2022/04/03 10:45:35;;;;;;;0.93;0.15;;;;;;;;;;5324155;28;20463;-68
2022/04/03 10:48:21;;;;;;;3.05;0.30;;;;;;;;;;5324855;28;20051;-69
2022/04/03 10:50:55;;;;;;;1.77;0.28;;;;;;;;;;5323675;28;20059;-69
2022/04/03 10:53:27;;;;;;;1.35;0.30;;;;;;;;;;5323732;28;20032;-68
2022/04/03 10:56:00;;;;;;;2.08;0.30;;;;;;;;;;5323982;28;20032;-69
2022/04/03 10:58:38;;;;;;;1.30;0.20;;;;;;;;;;5323725;28;20445;-68
2022/04/03 11:01:30;;;;;;;1.73;0.25;;;;;;;;;;5324464;28;20026;-70
2022/04/03 11:04:09;;;;;;;1.33;0.30;;;;;;;;;;5323810;28;20033;-68
2022/04/03 11:06:40;;;;;;;3.30;0.60;;;;;;;;;;5323906;28;20482;-69
2022/04/03 11:09:12;;;;;;;0.68;0.20;;;;;;;;;;5324383;28;20117;-69
2022/04/03 11:11:44;;;;;;;1.30;0.20;;;;;;;;;;5323898;28;20140;-69
2022/04/03 11:14:44;;;;;;;3.55;0.30;;;;;;;;;;5299785;27;20599;-69
2022/04/03 11:17:15;;;;;;;1.27;0.20;;;;;;;;;;5300152;28;20483;-69
2022/04/03 11:19:48;;;;;;;1.20;0.25;;;;;;;;;;5298525;28;20016;-69
2022/04/03 11:22:19;;;;;;;1.52;0.20;;;;;;;;;;5299745;28;20020;-69
2022/04/03 11:24:51;;;;;;;1.17;0.20;;;;;;;;;;5298590;28;20081;-69
2022/04/03 11:27:22;;;;;;;3.20;0.40;;;;;;;;;;5298645;28;20021;-69
2022/04/03 11:29:53;;;;;;;0.95;0.30;;;;;;;;;;5298826;28;20032;-68
2022/04/03 11:32:25;;;;;;;1.08;0.20;;;;;;;;;;5299270;28;20027;-69
2022/04/03 11:34:58;;;;;;;1.58;0.20;;;;;;;;;;5298053;28;20103;-68
2022/04/03 11:37:29;;;;;;;3.80;0.30;;;;;;;;;;5299027;28;20025;-69
2022/04/03 11:40:00;;;;;;;1.15;0.22;;;;;;;;;;5297916;28;20044;-69
2022/04/03 11:42:32;;;;;;;7.85;2.47;;;;;;;;;;5298151;28;20433;-68
2022/04/03 11:45:05;;;;;;;4.60;0.60;;;;;;;;;;5298734;28;20021;-67
2022/04/03 11:47:37;;;;;;;2.20;0.35;;;;;;;;;;5298170;28;20312;-68
2022/04/03 11:50:15;;;;;;;2.24;0.44;;;;;;;;;;5298739;28;20459;-68
2022/04/03 11:52:46;;;;;;;1.58;0.40;;;;;;;;;;5298794;28;20107;-68
2022/04/03 11:55:17;;;;;;;3.13;0.30;;;;;;;;;;5298466;28;20091;-69
2022/04/03 11:57:53;;;;;;;2.65;0.30;;;;;;;;;;5298662;28;20021;-68
2022/04/03 12:00:24;;;;;;;1.75;0.35;;;;;;;;;;5298952;28;20279;-68
2022/04/03 12:02:59;;;;;;;1.95;0.20;;;;;;;;;;5296935;28;20364;-68
2022/04/03 12:05:30;;;;;;;1.25;0.20;;;;;;;;;;5298512;28;20266;-69
2022/04/03 12:08:03;;;;;;;3.22;0.50;;;;;;;;;;5297767;28;20025;-69
2022/04/03 12:10:34;;;;;;;2.40;0.22;;;;;;;;;;5298569;28;20585;-67
2022/04/03 12:13:07;;;;;;;1.80;0.20;;;;;;;;;;5298190;28;20143;-68
2022/04/03 12:15:39;;;;;;;2.05;0.40;;;;;;;;;;5297888;28;20016;-68
2022/04/03 12:18:10;;;;;;;4.05;0.30;;;;;;;;;;5298386;28;20019;-69
2022/04/03 12:20:41;;;;;;;1.24;0.30;;;;;;;;;;5298351;28;20494;-68
2022/04/03 12:23:12;;;;;;;3.55;0.38;;;;;;;;;;5297436;28;20462;-68
2022/04/03 12:25:44;;;;;;;1.60;0.30;;;;;;;;;;5284248;28;20025;-69
2022/04/03 12:28:15;;;;;;;2.90;0.50;;;;;;;;;;5284644;28;20032;-69
2022/04/03 12:30:56;;;;;;;0.88;0.30;;;;;;;;;;5283239;28;20099;-69
2022/04/03 12:33:34;;;;;;;1.50;0.20;;;;;;;;;;5284384;28;20024;-69
2022/04/03 12:36:07;;;;;;;1.80;0.30;;;;;;;;;;5283560;28;20020;-69
2022/04/03 12:38:38;;;;;;;1.40;0.28;;;;;;;;;;5284216;28;20039;-69
2022/04/03 12:41:11;;;;;;;1.77;0.20;;;;;;;;;;5284142;28;20020;-68
2022/04/03 12:43:45;;;;;;;2.17;0.47;;;;;;;;;;5283031;28;20267;-69
2022/04/03 12:46:17;;;;;;;3.22;0.40;;;;;;;;;;5284093;28;20021;-69
2022/04/03 12:48:51;;;;;;;2.10;0.20;;;;;;;;;;5283580;28;20039;-70
2022/04/03 12:51:23;;;;;;;4.60;0.30;;;;;;;;;;5283280;28;20263;-69
2022/04/03 12:53:57;;;;;;;1.30;0.32;;;;;;;;;;5283260;28;20032;-69
2022/04/03 12:58:24;;;;;;;2.05;0.30;;;;;;;;;;5284032;28;20376;-69
2022/04/03 12:59:20;;;;;;;2.95;0.30;;;;;;;;;;5283148;28;20510;-69
2022/04/03 13:01:54;;;;;;;2.03;0.38;;;;;;;;;;5283381;28;20491;-69
2022/04/03 13:04:31;;;;;;;1.17;0.35;;;;;;;;;;5282798;28;20399;-69
2022/04/03 13:07:03;;;;;;;2.92;0.20;;;;;;;;;;5283447;28;20031;-69
2022/04/03 13:09:44;;;;;;;1.17;0.30;;;;;;;;;;5283736;28;20017;-69
2022/04/03 13:12:25;;;;;;;2.08;0.30;;;;;;;;;;5282686;28;20491;-69
2022/04/03 13:14:59;;;;;;;2.13;0.40;;;;;;;;;;5282908;28;20028;-69
2022/04/03 13:17:30;;;;;;;1.95;0.40;;;;;;;;;;5283152;28;20379;-69
2022/04/03 13:20:02;;;;;;;1.50;0.40;;;;;;;;;;5282524;28;20036;-69
2022/04/03 13:22:33;;;;;;;3.35;0.50;;;;;;;;;;5283221;28;20263;-69
2022/04/03 13:25:05;;;;;;;1.38;0.40;;;;;;;;;;5283542;28;20051;-68
2022/04/03 13:27:36;;;;;;;2.20;0.40;;;;;;;;;;5282387;28;20021;-69
2022/04/03 13:30:07;;;;;;;3.17;0.50;;;;;;;;;;5282928;28;20039;-69
2022/04/03 13:32:39;;;;;;;3.65;0.50;;;;;;;;;;5282195;28;20074;-69
2022/04/03 13:35:10;;;;;;;1.98;0.40;;;;;;;;;;5282627;28;20074;-69
2022/04/03 13:37:41;;;;;;;4.10;0.40;;;;;;;;;;5282114;28;20024;-69
2022/04/03 13:40:12;;;;;;;2.75;0.68;;;;;;;;;;5281867;28;20622;-69
2022/04/03 13:42:43;;;;;;;3.08;0.38;;;;;;;;;;5282648;28;20287;-69
2022/04/03 13:45:15;;;;;;;1.70;0.30;;;;;;;;;;5282621;28;20450;-69
2022/04/03 13:47:46;;;;;;;4.78;1.38;;;;;;;;;;5281424;28;20012;-69
2022/04/03 13:50:17;;;;;;;2.63;0.65;;;;;;;;;;5282680;28;20032;-69
2022/04/03 13:52:49;;;;;;;2.70;0.35;;;;;;;;;;5281826;28;20302;-68
2022/04/03 13:55:20;;;;;;;2.40;0.20;;;;;;;;;;5281956;28;20016;-68
2022/04/03 13:57:51;;;;;;;2.20;0.20;;;;;;;;;;5282022;28;20765;-67
2022/04/03 14:00:23;;;;;;;2.00;0.20;;;;;;;;;;5282336;28;20267;-69
2022/04/03 14:02:55;;;;;;;0.98;0.40;;;;;;;;;;5281267;28;20020;-69
2022/04/03 14:05:26;;;;;;;3.85;0.20;;;;;;;;;;5282225;28;20508;-69
2022/04/03 14:07:57;;;;;;;1.38;0.60;;;;;;;;;;5281156;28;20025;-68
2022/04/03 14:10:29;;;;;;;2.97;0.40;;;;;;;;;;5282389;28;20047;-68
2022/04/03 14:13:01;;;;;;;2.10;0.85;;;;;;;;;;5277699;28;20044;-68
2022/04/03 14:15:32;;;;;;;2.97;0.50;;;;;;;;;;5281102;28;20044;-69
2022/04/03 14:18:03;;;;;;;1.50;0.50;;;;;;;;;;5281505;28;20048;-68
2022/04/03 14:20:34;;;;;;;2.72;0.60;;;;;;;;;;5281733;28;20290;-67
2022/04/03 14:23:06;;;;;;;1.72;0.50;;;;;;;;;;5280570;28;20024;-68
2022/04/03 14:25:37;;;;;;;2.40;0.40;;;;;;;;;;5281764;28;20383;-68
2022/04/03 14:28:08;;;;;;;1.92;0.40;;;;;;;;;;5281454;28;20353;-67
2022/04/03 14:30:39;;;;;;;1.45;0.38;;;;;;;;;;5280545;28;20487;-67
2022/04/03 14:33:10;;;;;;;4.47;0.40;;;;;;;;;;5281225;28;20434;-68
2022/04/03 14:35:41;;;;;;;2.55;0.30;;;;;;;;;;5280722;28;20099;-69
2022/04/03 14:38:13;;;;;;;2.67;0.30;;;;;;;;;;5281258;28;20078;-68
2022/04/03 14:40:44;;;;;;;1.73;0.30;;;;;;;;;;5281358;28;20012;-68
2022/04/03 14:43:15;;;;;;;2.60;0.30;;;;;;;;;;5280723;28;20121;-68
2022/04/03 14:45:46;;;;;;;1.92;0.20;;;;;;;;;;5281370;28;20134;-68
2022/04/03 14:48:17;;;;;;;0.60;0.20;;;;;;;;;;5281526;28;20013;-69
2022/04/03 14:50:49;;;;;;;3.20;0.20;;;;;;;;;;5280221;28;20125;-68
2022/04/03 14:53:20;;;;;;;2.30;0.20;;;;;;;;;;5281334;28;20028;-68
2022/04/03 14:55:51;;;;;;;0.95;0.30;;;;;;;;;;5280579;28;20012;-67
2022/04/03 14:58:22;;;;;;;3.28;0.20;;;;;;;;;;5280407;28;20024;-68
2022/04/03 15:00:53;;;;;;;1.08;0.57;;;;;;;;;;5279598;28;20032;-68
2022/04/03 15:03:25;;;;;;;1.23;0.20;;;;;;;;;;5281218;28;20502;-67
2022/04/03 15:05:56;;;;;;;1.25;0.30;;;;;;;;;;5278837;28;20270;-67
2022/04/03 15:08:27;;;;;;;2.42;0.30;;;;;;;;;;5280684;28;20029;-68
2022/04/03 15:10:59;;;;;;;2.85;0.20;;;;;;;;;;5279470;28;20477;-67
2022/04/03 15:13:32;;;;;;;1.33;0.20;;;;;;;;;;5280547;28;20052;-68